createdAt,value
2022-10-09T00:03:25.110Z,100367.60
2022-10-09T00:06:37.355Z,100365.00
2022-10-09T00:09:49.152Z,100360.80
2022-10-09T00:13:02.543Z,100353.60
2022-10-09T00:16:14.255Z,100352.40
2022-10-09T00:19:28.163Z,100349.60
2022-10-09T00:22:44.670Z,100348.00
2022-10-09T00:25:59.208Z,100352.40
2022-10-09T00:29:16.381Z,100350.00
2022-10-09T00:32:33.326Z,100345.00
2022-10-09T00:35:52.271Z,100344.00
2022-10-09T00:39:02.415Z,100334.60
2022-10-09T00:42:12.238Z,100338.40
2022-10-09T00:45:21.179Z,100335.40
2022-10-09T00:48:35.227Z,100330.40
2022-10-09T00:51:48.191Z,100335.60
2022-10-09T00:55:14.141Z,100333.40
2022-10-09T00:58:29.229Z,100326.60
2022-10-09T01:01:36.473Z,100329.40
2022-10-09T01:04:46.794Z,100332.40
2022-10-09T01:07:59.401Z,100326.00
2022-10-09T01:11:17.263Z,100323.60
2022-10-09T01:14:27.362Z,100320.20
2022-10-09T01:17:39.131Z,100322.20
2022-10-09T01:20:49.964Z,100320.00
2022-10-09T01:24:01.309Z,100317.40
2022-10-09T01:27:11.468Z,100320.60
2022-10-09T01:30:21.353Z,100314.60
2022-10-09T01:33:31.360Z,100315.80
2022-10-09T01:36:42.333Z,100319.00
2022-10-09T01:39:50.315Z,100318.00
2022-10-09T01:43:05.388Z,100314.80
2022-10-09T01:46:13.358Z,100318.00
2022-10-09T01:49:29.450Z,100316.40
2022-10-09T01:52:41.130Z,100312.60
2022-10-09T01:55:50.706Z,100311.20
2022-10-09T01:59:06.491Z,100314.60
2022-10-09T02:02:18.838Z,100313.60
2022-10-09T02:05:27.680Z,100312.20
2022-10-09T02:08:39.547Z,100313.20
2022-10-09T02:11:54.424Z,100314.20
2022-10-09T02:15:04.591Z,100317.60
2022-10-09T02:18:17.478Z,100312.80
2022-10-09T02:21:29.368Z,100309.00
2022-10-09T02:24:47.651Z,100306.00
2022-10-09T02:28:09.727Z,100309.00
2022-10-09T02:31:23.013Z,100310.00
2022-10-09T02:34:34.602Z,100315.80
2022-10-09T02:37:44.591Z,100314.80
2022-10-09T02:41:05.634Z,100311.80
2022-10-09T02:44:16.494Z,100313.00
2022-10-09T02:47:24.584Z,100318.60
2022-10-09T02:50:34.544Z,100317.80
2022-10-09T02:53:45.688Z,100323.60
2022-10-09T02:56:57.613Z,100322.00
2022-10-09T03:03:40.003Z,100321.60
2022-10-09T03:07:34.269Z,100320.60
2022-10-09T03:11:32.582Z,100322.00
2022-10-09T03:14:46.608Z,100315.60
2022-10-09T03:17:57.691Z,100317.80
2022-10-09T03:21:06.633Z,100319.00
2022-10-09T03:24:19.704Z,100313.20
2022-10-09T03:27:29.606Z,100315.20
2022-10-09T03:30:39.801Z,100313.80
2022-10-09T03:33:50.693Z,100318.20
2022-10-09T03:36:58.695Z,100317.60
2022-10-09T03:40:08.762Z,100320.40
2022-10-09T03:43:16.618Z,100327.20
2022-10-09T03:47:12.953Z,100325.60
2022-10-09T03:50:18.760Z,100330.00
2022-10-09T03:53:34.887Z,100329.20
2022-10-09T03:56:48.803Z,100332.00
2022-10-09T04:00:05.710Z,100336.20
2022-10-09T04:03:18.888Z,100331.00
2022-10-09T04:06:30.926Z,100332.80
2022-10-09T04:09:50.347Z,100328.20
2022-10-09T04:13:00.738Z,100323.60
2022-10-09T04:16:13.752Z,100324.20
2022-10-09T04:19:23.836Z,100322.80
2022-10-09T04:22:31.724Z,100327.60
2022-10-09T04:25:38.826Z,100322.00
2022-10-09T04:28:46.950Z,100330.20
2022-10-09T04:32:02.724Z,100334.80
2022-10-09T04:35:15.799Z,100332.80
2022-10-09T04:38:31.653Z,100334.60
2022-10-09T04:41:38.813Z,100331.80
2022-10-09T04:44:48.849Z,100336.40
2022-10-09T04:47:58.949Z,100330.20
2022-10-09T04:51:09.906Z,100331.00
2022-10-09T04:54:19.866Z,100335.20
2022-10-09T04:57:33.946Z,100330.60
2022-10-09T05:00:45.515Z,100330.60
2022-10-09T05:03:55.932Z,100333.60
2022-10-09T05:07:03.983Z,100338.60
2022-10-09T05:10:18.683Z,100344.80
2022-10-09T05:13:25.946Z,100348.40
2022-10-09T05:16:40.777Z,100356.40
2022-10-09T05:20:02.895Z,100358.00
2022-10-09T05:23:09.816Z,100352.60
2022-10-09T05:26:19.932Z,100364.20
2022-10-09T05:29:29.758Z,100371.20
2022-10-09T05:32:39.925Z,100373.20
2022-10-09T05:35:49.954Z,100373.00
2022-10-09T05:38:56.907Z,100379.40
2022-10-09T05:42:06.906Z,100385.00
2022-10-09T05:45:17.914Z,100384.40
2022-10-09T05:48:28.041Z,100384.80
2022-10-09T05:51:42.952Z,100383.60
2022-10-09T05:54:58.520Z,100385.00
2022-10-09T05:58:05.946Z,100385.80
2022-10-09T06:01:21.189Z,100383.20
2022-10-09T06:04:29.065Z,100390.00
2022-10-09T06:07:40.989Z,100386.00
2022-10-09T06:10:51.115Z,100384.00
2022-10-09T06:14:00.982Z,100386.00
2022-10-09T06:17:08.005Z,100390.00
2022-10-09T06:20:18.008Z,100398.80
2022-10-09T06:23:25.061Z,100401.40
2022-10-09T06:26:35.082Z,100407.00
2022-10-09T06:29:49.068Z,100408.20
2022-10-09T06:33:03.176Z,100411.80
2022-10-09T06:36:18.109Z,100408.40
2022-10-09T06:39:38.485Z,100408.40
2022-10-09T06:42:48.336Z,100412.20
2022-10-09T06:45:56.291Z,100417.80
2022-10-09T06:49:10.090Z,100417.40
2022-10-09T06:52:20.278Z,100416.40
2022-10-09T06:55:36.133Z,100411.40
2022-10-09T07:02:26.510Z,100416.80
2022-10-09T07:08:54.312Z,100417.60
2022-10-09T07:12:15.347Z,100417.20
2022-10-09T07:16:05.139Z,100420.00
2022-10-09T07:19:25.382Z,100431.20
2022-10-09T07:22:34.364Z,100430.80
2022-10-09T07:25:43.319Z,100424.40
2022-10-09T07:29:01.122Z,100420.60
2022-10-09T07:32:13.227Z,100427.20
2022-10-09T07:35:48.825Z,100425.60
2022-10-09T07:39:47.265Z,100427.60
2022-10-09T07:43:10.585Z,100436.20
2022-10-09T07:47:18.352Z,100433.00
2022-10-09T07:50:30.373Z,100437.40
2022-10-09T07:57:13.604Z,100433.20
2022-10-09T08:01:04.821Z,100429.40
2022-10-09T08:04:22.431Z,100427.20
2022-10-09T08:07:37.168Z,100428.80
2022-10-09T08:10:46.500Z,100431.00
2022-10-09T08:13:58.345Z,100433.00
2022-10-09T08:17:17.474Z,100435.40
2022-10-09T08:20:31.567Z,100437.60
2022-10-09T08:23:43.657Z,100438.60
2022-10-09T08:26:59.387Z,100437.40
2022-10-09T08:33:39.559Z,100432.20
2022-10-09T08:36:50.371Z,100432.20
2022-10-09T08:40:10.495Z,100431.80
2022-10-09T08:43:29.445Z,100433.40
2022-10-09T08:58:06.501Z,100429.20
2022-10-09T09:01:29.759Z,100420.40
2022-10-09T09:08:25.377Z,100418.60
2022-10-09T09:12:04.591Z,100424.20
2022-10-09T09:15:21.562Z,100424.40
2022-10-09T09:18:41.943Z,100430.20
2022-10-09T09:21:57.600Z,100434.40
2022-10-09T09:28:34.598Z,100428.80
2022-10-09T09:35:25.623Z,100425.60
2022-10-09T09:43:06.768Z,100431.80
2022-10-09T09:46:30.762Z,100436.20
2022-10-09T10:00:41.671Z,100430.60
2022-10-09T10:33:45.818Z,100419.40
2022-10-09T10:37:44.799Z,100419.80
2022-10-09T10:41:37.292Z,100417.20
2022-10-09T10:45:26.292Z,100408.20
2022-10-09T10:52:31.627Z,100401.00
2022-10-09T10:59:55.414Z,100390.40
2022-10-09T11:03:15.001Z,100387.20
2022-10-09T11:10:05.014Z,100389.80
2022-10-09T11:13:51.966Z,100387.00
2022-10-09T11:21:25.946Z,100384.40
2022-10-09T11:25:33.921Z,100381.80
2022-10-09T11:37:38.435Z,100375.00
2022-10-09T11:41:47.900Z,100371.20
2022-10-09T11:45:59.109Z,100374.40
2022-10-09T11:49:58.648Z,100372.20
2022-10-09T11:53:51.130Z,100368.40
2022-10-09T11:58:03.936Z,100373.20
2022-10-09T12:01:53.394Z,100373.40
2022-10-09T12:05:46.591Z,100374.00
2022-10-09T12:09:44.974Z,100373.20
2022-10-09T12:13:17.406Z,100369.60
2022-10-09T12:16:49.329Z,100358.60
2022-10-09T12:31:50.645Z,100366.60
2022-10-09T12:38:48.345Z,100364.00
2022-10-09T12:42:04.890Z,100363.80
2022-10-09T12:45:16.283Z,100370.80
2022-10-09T12:48:31.251Z,100368.20
2022-10-09T12:55:07.294Z,100368.00
2022-10-09T12:58:38.312Z,100374.60
2022-10-09T13:01:53.749Z,100372.80
2022-10-09T13:05:43.419Z,100375.40
2022-10-09T13:12:38.315Z,100379.20
2022-10-09T13:15:56.351Z,100379.40
2022-10-09T13:19:12.407Z,100382.80
2022-10-09T13:22:38.376Z,100382.60
2022-10-09T13:25:50.376Z,100382.00
2022-10-09T13:29:03.349Z,100387.60
2022-10-09T13:32:20.326Z,100385.80
2022-10-09T13:36:02.307Z,100383.20
2022-10-09T13:39:25.658Z,100385.40
2022-10-09T13:42:36.467Z,100389.60
2022-10-09T13:46:11.440Z,100386.80
2022-10-09T13:49:41.130Z,100391.00
2022-10-09T13:53:05.470Z,100390.20
2022-10-09T13:56:17.579Z,100392.00
2022-10-09T13:59:30.616Z,100394.40
2022-10-09T14:03:04.550Z,100386.60
2022-10-09T14:06:20.624Z,100393.40
2022-10-09T14:09:45.088Z,100394.00
2022-10-09T14:13:20.776Z,100394.20
2022-10-09T14:16:43.617Z,100397.00
2022-10-09T14:19:53.622Z,100401.80
2022-10-09T14:23:05.737Z,100406.00
2022-10-09T14:31:18.218Z,100412.80
2022-10-09T14:35:02.068Z,100416.80
2022-10-09T14:38:23.325Z,100421.80
2022-10-09T14:42:04.647Z,100425.80
2022-10-09T14:45:48.843Z,100429.40
2022-10-09T14:53:38.980Z,100437.40
2022-10-09T15:03:49.845Z,100445.40
2022-10-09T15:07:10.024Z,100452.60
2022-10-09T15:10:24.101Z,100455.60
2022-10-09T15:13:33.964Z,100460.60
2022-10-09T15:21:07.930Z,100458.80
2022-10-09T15:25:16.053Z,100462.00
2022-10-09T15:28:43.190Z,100464.20
2022-10-09T15:32:28.311Z,100466.80
2022-10-09T15:35:49.153Z,100475.80
2022-10-09T15:39:47.393Z,100479.20
2022-10-09T15:43:47.301Z,100483.20
2022-10-09T15:47:51.387Z,100497.80
2022-10-09T15:51:09.117Z,100504.00
2022-10-09T15:54:26.283Z,100508.20
2022-10-09T15:58:04.190Z,100506.00
2022-10-09T16:01:22.569Z,100511.20
2022-10-09T16:04:37.766Z,100514.00
2022-10-09T16:07:46.891Z,100517.80
2022-10-09T16:11:10.192Z,100526.60
2022-10-09T16:14:30.485Z,100525.20
2022-10-09T16:18:22.745Z,100532.60
2022-10-09T16:22:16.915Z,100538.00
2022-10-09T16:25:43.397Z,100547.60
2022-10-09T16:28:54.188Z,100552.00
2022-10-09T16:32:09.887Z,100553.00
2022-10-09T16:35:25.083Z,100560.20
2022-10-09T16:39:14.646Z,100567.40
2022-10-09T16:49:40.133Z,100567.80
2022-10-09T16:53:01.204Z,100571.60
2022-10-09T16:56:16.302Z,100578.40
2022-10-09T16:59:44.546Z,100581.00
2022-10-09T17:03:29.090Z,100579.40
2022-10-09T17:07:24.782Z,100586.00
2022-10-09T17:11:12.809Z,100596.20
2022-10-09T17:15:04.339Z,100599.60
2022-10-09T17:18:24.324Z,100599.20
2022-10-09T17:21:44.400Z,100600.60
2022-10-09T17:25:39.681Z,100599.20
2022-10-09T17:29:30.543Z,100603.80
2022-10-09T17:33:29.323Z,100608.00
2022-10-09T17:37:20.238Z,100611.20
2022-10-09T17:41:21.168Z,100612.40
2022-10-09T17:44:25.444Z,100618.00
2022-10-09T17:47:42.437Z,100623.80
2022-10-09T17:51:26.453Z,100625.40
2022-10-09T17:54:49.454Z,100626.80
2022-10-09T17:57:58.429Z,100628.60
2022-10-09T18:01:15.562Z,100632.80
2022-10-09T18:04:24.414Z,100631.40
2022-10-09T18:07:39.478Z,100634.40
2022-10-09T18:11:24.502Z,100641.60
2022-10-09T18:18:48.443Z,100647.40
2022-10-09T18:21:54.445Z,100650.60
2022-10-09T18:25:05.394Z,100649.80
2022-10-09T18:28:14.541Z,100651.60
2022-10-09T18:31:20.444Z,100653.80
2022-10-09T18:34:39.275Z,100659.00
2022-10-09T18:37:48.539Z,100655.40
2022-10-09T18:40:54.450Z,100659.60
2022-10-09T18:44:03.468Z,100657.60
2022-10-09T18:47:09.445Z,100663.80
2022-10-09T18:50:18.895Z,100664.80
2022-10-09T18:53:31.462Z,100662.40
2022-10-09T18:56:37.497Z,100672.20
2022-10-09T18:59:46.506Z,100678.40
2022-10-09T19:02:55.626Z,100684.20
2022-10-09T19:06:05.590Z,100686.40
2022-10-09T19:09:16.481Z,100688.60
2022-10-09T19:12:22.790Z,100693.00
2022-10-09T19:15:31.644Z,100691.20
2022-10-09T19:18:40.685Z,100697.20
2022-10-09T19:21:48.726Z,100699.80
2022-10-09T19:24:54.634Z,100706.00
2022-10-09T19:28:02.601Z,100710.00
2022-10-09T19:31:07.515Z,100716.00
2022-10-09T19:34:13.523Z,100715.80
2022-10-09T19:37:23.785Z,100718.40
2022-10-09T19:40:35.694Z,100713.00
2022-10-09T19:43:41.548Z,100724.00
2022-10-09T19:46:49.554Z,100722.80
2022-10-09T19:49:55.782Z,100728.00
2022-10-09T19:53:03.560Z,100734.20
2022-10-09T19:56:15.605Z,100737.60
2022-10-09T19:59:21.741Z,100743.40
2022-10-09T20:02:30.716Z,100743.20
2022-10-09T20:05:39.662Z,100746.20
2022-10-09T20:08:48.723Z,100743.20
2022-10-09T20:11:57.702Z,100746.20
2022-10-09T20:15:08.852Z,100745.20
2022-10-09T20:18:17.790Z,100749.20
2022-10-09T20:21:29.790Z,100751.80
2022-10-09T20:24:40.695Z,100744.80
2022-10-09T20:27:55.258Z,100751.20
2022-10-09T20:31:11.679Z,100756.00
2022-10-09T20:34:17.721Z,100762.60
2022-10-09T20:37:28.676Z,100767.00
2022-10-09T20:40:42.601Z,100770.00
2022-10-09T20:43:51.754Z,100765.40
2022-10-09T20:46:57.776Z,100766.60
2022-10-09T20:50:03.848Z,100767.00
2022-10-09T20:53:09.895Z,100768.60
2022-10-09T20:56:18.963Z,100775.40
2022-10-09T20:59:27.776Z,100780.00
2022-10-09T21:02:38.029Z,100780.20
2022-10-09T21:05:43.796Z,100786.00
2022-10-09T21:08:49.923Z,100785.00
2022-10-09T21:11:55.920Z,100787.60
2022-10-09T21:15:05.052Z,100782.40
2022-10-09T21:18:12.233Z,100788.00
2022-10-09T21:21:50.709Z,100789.60
2022-10-09T21:25:13.861Z,100796.20
2022-10-09T21:28:22.944Z,100795.20
2022-10-09T21:31:38.654Z,100792.60
2022-10-09T21:34:51.393Z,100793.20
2022-10-09T21:38:15.047Z,100794.00
2022-10-09T21:41:23.915Z,100794.60
2022-10-09T21:44:34.835Z,100790.00
2022-10-09T21:47:40.906Z,100796.40
2022-10-09T21:50:46.873Z,100797.80
2022-10-09T21:53:52.860Z,100803.80
2022-10-09T21:56:58.902Z,100806.60
2022-10-09T22:00:04.866Z,100809.00
2022-10-09T22:03:02.943Z,100815.20
2022-10-09T22:06:16.346Z,100813.20
2022-10-09T22:09:34.063Z,100811.00
2022-10-09T22:12:41.004Z,100812.80
2022-10-09T22:15:52.057Z,100808.20
2022-10-09T22:19:40.784Z,100809.00
2022-10-09T22:22:46.061Z,100809.60
2022-10-09T22:26:13.044Z,100813.00
2022-10-09T22:29:23.030Z,100815.80
2022-10-09T22:32:28.978Z,100820.80
2022-10-09T22:35:37.133Z,100826.60
2022-10-09T22:38:55.060Z,100826.40
2022-10-09T22:42:01.065Z,100827.20
2022-10-09T22:45:07.117Z,100834.40
2022-10-09T22:48:15.018Z,100840.60
2022-10-09T22:51:21.076Z,100843.60
2022-10-09T22:54:27.172Z,100840.60
2022-10-09T22:57:36.037Z,100846.80
2022-10-09T23:00:44.058Z,100843.40
2022-10-09T23:03:50.087Z,100840.00
2022-10-09T23:06:57.979Z,100841.00
2022-10-09T23:10:06.244Z,100843.80
2022-10-09T23:13:12.125Z,100839.40
2022-10-09T23:16:24.236Z,100846.40
2022-10-09T23:19:31.140Z,100855.20
2022-10-09T23:22:40.131Z,100857.60
2022-10-09T23:25:48.127Z,100865.80
2022-10-09T23:28:57.338Z,100862.80
2022-10-09T23:32:03.191Z,100862.40
2022-10-09T23:35:09.224Z,100866.80
2022-10-09T23:38:17.189Z,100869.80
2022-10-09T23:41:23.141Z,100877.60
2022-10-09T23:44:32.202Z,100876.20
2022-10-09T23:47:40.187Z,100878.40
2022-10-09T23:50:59.443Z,100880.20
2022-10-09T23:54:05.249Z,100881.60
2022-10-09T23:57:14.173Z,100879.40
